createdAt,value
2018-03-15T00:02:14.248Z,6.60
2018-03-15T00:04:40.748Z,6.60
2018-03-15T00:07:07.272Z,6.60
2018-03-15T00:09:33.782Z,6.70
2018-03-15T00:12:01.025Z,6.60
2018-03-15T00:14:27.556Z,6.60
2018-03-15T00:16:54.046Z,6.60
2018-03-15T00:19:20.576Z,6.60
2018-03-15T00:21:47.078Z,6.60
2018-03-15T00:24:14.321Z,6.50
2018-03-15T00:26:40.797Z,6.50
2018-03-15T00:29:07.328Z,6.50
2018-03-15T00:31:33.811Z,6.60
2018-03-15T00:34:00.302Z,6.50
2018-03-15T00:36:26.797Z,6.50
2018-03-15T00:38:53.333Z,6.50
2018-03-15T00:41:19.822Z,6.50
2018-03-15T00:43:46.320Z,6.50
2018-03-15T00:46:12.831Z,6.50
2018-03-15T00:48:39.342Z,6.50
2018-03-15T00:51:05.857Z,6.50
2018-03-15T00:53:32.378Z,6.40
2018-03-15T00:55:59.586Z,6.50
2018-03-15T00:58:26.091Z,6.50
2018-03-15T01:00:52.600Z,6.50
2018-03-15T01:03:19.089Z,6.50
2018-03-15T01:05:45.581Z,6.60
2018-03-15T01:08:12.066Z,6.80
2018-03-15T01:10:38.564Z,6.80
2018-03-15T01:13:05.149Z,6.80
2018-03-15T01:15:31.635Z,6.80
2018-03-15T01:17:58.114Z,6.80
2018-03-15T01:20:24.600Z,6.80
2018-03-15T01:22:51.078Z,6.80
2018-03-15T01:25:17.593Z,6.70
2018-03-15T01:27:44.091Z,6.50
2018-03-15T01:30:10.592Z,6.80
2018-03-15T01:32:37.127Z,6.70
2018-03-15T01:35:04.355Z,6.80
2018-03-15T01:37:30.862Z,6.80
2018-03-15T01:39:57.349Z,6.60
2018-03-15T01:42:23.848Z,6.40
2018-03-15T01:44:50.358Z,6.50
2018-03-15T01:47:16.874Z,6.40
2018-03-15T01:49:43.447Z,6.40
2018-03-15T01:52:09.922Z,6.40
2018-03-15T01:54:36.431Z,6.30
2018-03-15T01:57:03.027Z,6.20
2018-03-15T01:59:29.533Z,6.30
2018-03-15T02:01:56.815Z,6.20
2018-03-15T02:04:23.358Z,6.20
2018-03-15T02:06:49.845Z,6.10
2018-03-15T02:09:17.147Z,6.10
2018-03-15T02:11:43.630Z,6.10
2018-03-15T02:14:10.108Z,6.10
2018-03-15T02:16:36.601Z,6.10
2018-03-15T02:19:03.080Z,6.30
2018-03-15T02:21:29.576Z,6.50
2018-03-15T02:23:56.074Z,6.40
2018-03-15T02:26:22.588Z,6.60
2018-03-15T02:28:49.065Z,6.60
2018-03-15T02:31:15.551Z,6.50
2018-03-15T02:33:42.041Z,6.30
2018-03-15T02:36:09.299Z,6.10
2018-03-15T02:38:35.792Z,6.10
2018-03-15T02:41:02.276Z,6.10
2018-03-15T02:43:29.585Z,6.10
2018-03-15T02:45:56.084Z,6.10
2018-03-15T02:48:23.367Z,6.30
2018-03-15T02:50:49.859Z,6.20
2018-03-15T02:53:17.157Z,6.20
2018-03-15T02:55:43.661Z,6.20
2018-03-15T02:58:10.163Z,6.40
2018-03-15T03:00:36.683Z,6.40
2018-03-15T03:03:03.242Z,6.50
2018-03-15T03:05:29.762Z,6.40
2018-03-15T03:07:56.238Z,6.20
2018-03-15T03:10:22.804Z,6.30
2018-03-15T03:12:49.313Z,6.40
2018-03-15T03:15:15.796Z,6.30
2018-03-15T03:17:42.292Z,6.20
2018-03-15T03:20:08.819Z,6.30
2018-03-15T03:22:35.316Z,6.50
2018-03-15T03:25:01.803Z,6.30
2018-03-15T03:27:28.310Z,6.30
2018-03-15T03:29:55.525Z,6.30
2018-03-15T03:32:21.999Z,6.30
2018-03-15T03:34:48.520Z,6.20
2018-03-15T03:37:15.000Z,6.20
2018-03-15T03:39:41.526Z,6.20
2018-03-15T03:42:08.008Z,6.20
2018-03-15T03:44:34.522Z,6.30
2018-03-15T03:47:01.063Z,6.40
2018-03-15T03:49:27.587Z,6.50
2018-03-15T03:51:54.065Z,6.30
2018-03-15T03:54:20.559Z,6.10
2018-03-15T03:56:47.050Z,6.10
2018-03-15T03:59:13.550Z,6.10
2018-03-15T04:01:40.041Z,6.10
2018-03-15T04:04:06.549Z,6.10
2018-03-15T04:06:33.074Z,6.00
2018-03-15T04:08:59.559Z,5.90
2018-03-15T04:11:26.047Z,5.90
2018-03-15T04:13:52.690Z,6.00
2018-03-15T04:16:19.256Z,5.90
2018-03-15T04:18:45.730Z,5.90
2018-03-15T04:21:12.222Z,5.80
2018-03-15T04:23:38.703Z,5.80
2018-03-15T04:26:05.267Z,5.70
2018-03-15T04:28:31.780Z,5.70
2018-03-15T04:30:58.326Z,5.70
2018-03-15T04:33:24.839Z,5.80
2018-03-15T04:35:52.068Z,5.70
2018-03-15T04:38:19.157Z,5.70
2018-03-15T04:40:45.698Z,5.70
2018-03-15T04:43:12.195Z,5.80
2018-03-15T04:45:38.719Z,5.80
2018-03-15T04:48:05.227Z,5.80
2018-03-15T04:50:31.737Z,5.80
2018-03-15T04:52:58.233Z,5.90
2018-03-15T04:55:24.709Z,6.10
2018-03-15T04:57:51.954Z,6.20
2018-03-15T05:00:18.448Z,6.20
2018-03-15T05:02:44.953Z,6.10
2018-03-15T05:05:11.454Z,5.90
2018-03-15T05:07:38.686Z,5.90
2018-03-15T05:10:05.220Z,5.90
2018-03-15T05:12:31.699Z,6.00
2018-03-15T05:14:58.174Z,5.90
2018-03-15T05:17:24.720Z,6.10
2018-03-15T05:19:51.235Z,6.20
2018-03-15T05:22:17.721Z,6.10
2018-03-15T05:24:44.203Z,6.30
2018-03-15T05:27:10.707Z,6.30
2018-03-15T05:29:37.230Z,6.00
2018-03-15T05:32:03.726Z,6.00
2018-03-15T05:34:30.214Z,6.00
2018-03-15T05:36:56.677Z,6.00
2018-03-15T05:39:23.202Z,6.10
2018-03-15T05:41:49.694Z,6.30
2018-03-15T05:44:16.203Z,6.20
2018-03-15T05:46:42.701Z,6.30
2018-03-15T05:49:09.948Z,6.40
2018-03-15T05:51:37.199Z,6.20
2018-03-15T05:54:03.731Z,6.20
2018-03-15T05:56:30.994Z,6.00
2018-03-15T05:58:58.228Z,5.90
2018-03-15T06:01:24.709Z,5.90
2018-03-15T06:03:51.990Z,6.00
2018-03-15T06:06:18.478Z,5.90
2018-03-15T06:08:44.983Z,5.90
2018-03-15T06:11:11.481Z,6.00
2018-03-15T06:13:37.961Z,6.20
2018-03-15T06:16:05.279Z,6.20
2018-03-15T06:18:31.768Z,6.20
2018-03-15T06:20:59.004Z,6.20
2018-03-15T06:23:26.245Z,6.20
2018-03-15T06:25:52.776Z,6.20
2018-03-15T06:28:19.245Z,6.40
2018-03-15T06:30:45.835Z,6.20
2018-03-15T06:33:12.330Z,6.20
2018-03-15T06:35:38.852Z,6.20
2018-03-15T06:38:05.366Z,6.40
2018-03-15T06:40:31.847Z,6.40
2018-03-15T06:42:58.338Z,6.30
2018-03-15T06:45:25.581Z,6.10
2018-03-15T06:47:52.084Z,6.10
2018-03-15T06:50:18.551Z,6.20
2018-03-15T06:52:45.042Z,6.20
2018-03-15T06:55:11.549Z,6.10
2018-03-15T06:57:38.783Z,6.10
2018-03-15T07:00:06.015Z,6.20
2018-03-15T07:02:32.499Z,6.20
2018-03-15T07:04:59.030Z,6.30
2018-03-15T07:07:25.551Z,6.10
2018-03-15T07:09:52.782Z,6.10
2018-03-15T07:12:19.315Z,6.10
2018-03-15T07:14:45.862Z,6.00
2018-03-15T07:17:13.169Z,6.00
2018-03-15T07:19:39.650Z,6.00
2018-03-15T07:22:06.151Z,6.10
2018-03-15T07:24:33.383Z,6.10
2018-03-15T07:26:59.853Z,6.10
2018-03-15T07:29:26.372Z,6.00
2018-03-15T07:31:52.879Z,6.10
2018-03-15T07:34:19.401Z,6.20
2018-03-15T07:36:45.927Z,6.20
2018-03-15T07:39:13.162Z,6.30
2018-03-15T07:41:39.665Z,6.30
2018-03-15T07:44:06.135Z,6.30
2018-03-15T07:46:33.391Z,6.30
2018-03-15T07:49:00.645Z,6.30
2018-03-15T07:51:27.866Z,6.40
2018-03-15T07:53:54.373Z,6.40
2018-03-15T07:56:20.896Z,6.30
2018-03-15T07:58:47.377Z,6.30
2018-03-15T08:01:13.972Z,6.40
2018-03-15T08:03:41.048Z,6.50
2018-03-15T08:06:07.645Z,6.60
2018-03-15T08:08:34.126Z,6.50
2018-03-15T08:11:00.597Z,6.60
2018-03-15T08:13:27.822Z,6.70
2018-03-15T08:15:54.307Z,6.70
2018-03-15T08:18:20.788Z,6.80
2018-03-15T08:20:47.393Z,6.90
2018-03-15T08:23:13.906Z,6.90
2018-03-15T08:28:12.176Z,7.00
2018-03-15T08:30:39.406Z,7.10
2018-03-15T08:33:05.916Z,7.10
2018-03-15T08:35:32.416Z,7.00
2018-03-15T08:37:58.951Z,6.90
2018-03-15T08:40:25.439Z,7.00
2018-03-15T08:42:51.949Z,7.00
2018-03-15T08:45:18.421Z,7.00
2018-03-15T08:47:45.623Z,7.00
2018-03-15T08:50:12.097Z,7.00
2018-03-15T08:52:38.607Z,7.10
2018-03-15T08:55:05.173Z,7.00
2018-03-15T08:57:31.692Z,7.10
2018-03-15T08:59:58.182Z,7.10
2018-03-15T09:02:24.769Z,7.10
2018-03-15T09:04:51.675Z,7.20
2018-03-15T09:07:18.184Z,7.20
2018-03-15T09:09:44.638Z,7.30
2018-03-15T09:12:11.162Z,7.30
2018-03-15T09:14:37.655Z,7.40
2018-03-15T09:17:04.147Z,7.50
2018-03-15T09:19:30.657Z,7.40
2018-03-15T09:21:57.156Z,7.50
2018-03-15T09:24:23.632Z,7.50
2018-03-15T09:26:50.125Z,7.60
2018-03-15T09:29:16.662Z,7.70
2018-03-15T09:31:43.144Z,7.80
2018-03-15T09:34:09.696Z,7.70
2018-03-15T09:36:36.196Z,7.80
2018-03-15T09:39:03.618Z,7.70
2018-03-15T09:41:30.114Z,7.70
2018-03-15T09:43:56.693Z,7.80
2018-03-15T09:46:23.223Z,7.70
2018-03-15T09:48:49.785Z,7.80
2018-03-15T09:51:17.116Z,7.80
2018-03-15T09:53:43.564Z,7.80
2018-03-15T09:56:10.089Z,7.90
2018-03-15T09:58:36.622Z,8.10
2018-03-15T10:01:03.167Z,8.10
2018-03-15T10:03:29.644Z,8.10
2018-03-15T10:05:56.184Z,8.30
2018-03-15T10:08:22.695Z,8.30
2018-03-15T10:10:49.219Z,8.40
2018-03-15T10:13:16.494Z,8.60
2018-03-15T10:15:43.005Z,8.60
2018-03-15T10:18:09.673Z,8.60
2018-03-15T10:20:36.165Z,8.70
2018-03-15T10:23:02.657Z,8.70
2018-03-15T10:25:29.232Z,8.90
2018-03-15T10:27:55.702Z,8.80
2018-03-15T10:30:22.200Z,9.00
2018-03-15T10:32:54.648Z,9.10
2018-03-15T10:35:27.213Z,9.10
2018-03-15T10:37:53.816Z,9.00
2018-03-15T10:40:21.123Z,8.80
2018-03-15T10:42:47.671Z,8.80
2018-03-15T10:45:14.173Z,9.00
2018-03-15T10:47:40.691Z,9.30
2018-03-15T10:50:07.222Z,9.10
2018-03-15T10:52:34.562Z,9.20
2018-03-15T10:55:01.064Z,9.20
2018-03-15T10:57:28.322Z,9.40
2018-03-15T10:59:54.895Z,9.40
2018-03-15T11:02:21.444Z,9.60
2018-03-15T11:04:53.782Z,9.80
2018-03-15T11:07:26.214Z,9.60
2018-03-15T11:09:52.749Z,9.60
2018-03-15T11:12:19.289Z,9.50
2018-03-15T11:14:45.837Z,9.50
2018-03-15T11:17:12.328Z,10.00
2018-03-15T11:19:38.841Z,9.80
2018-03-15T11:22:05.406Z,9.90
2018-03-15T11:24:31.942Z,10.30
2018-03-15T11:26:59.191Z,10.30
2018-03-15T11:29:26.344Z,10.30
2018-03-15T11:31:52.866Z,10.20
2018-03-15T11:34:20.175Z,10.20
2018-03-15T11:36:46.714Z,10.20
2018-03-15T11:39:13.222Z,10.30
2018-03-15T11:41:39.767Z,10.30
2018-03-15T11:44:06.260Z,10.40
2018-03-15T11:46:33.497Z,10.70
2018-03-15T11:49:00.025Z,10.70
2018-03-15T11:51:26.562Z,10.70
2018-03-15T11:53:53.835Z,11.20
2018-03-15T11:56:20.311Z,11.20
2018-03-15T11:58:46.792Z,11.20
2018-03-15T12:01:13.313Z,10.90
2018-03-15T12:03:39.921Z,11.00
2018-03-15T12:06:06.484Z,11.20
2018-03-15T12:08:33.733Z,11.80
2018-03-15T12:11:00.309Z,11.80
2018-03-15T12:13:27.609Z,12.00
2018-03-15T12:15:54.154Z,12.00
2018-03-15T12:18:20.625Z,11.50
2018-03-15T12:20:47.128Z,11.40
2018-03-15T12:23:13.633Z,11.70
2018-03-15T12:25:40.121Z,11.70
2018-03-15T12:28:06.612Z,11.50
2018-03-15T12:30:33.133Z,11.50
2018-03-15T12:32:59.621Z,11.40
2018-03-15T12:35:26.140Z,11.40
2018-03-15T12:37:52.684Z,11.40
2018-03-15T12:40:19.221Z,11.20
2018-03-15T12:42:45.766Z,11.50
2018-03-15T12:45:12.316Z,11.50
2018-03-15T12:47:38.772Z,11.70
2018-03-15T12:50:05.359Z,11.80
2018-03-15T12:52:31.839Z,11.60
2018-03-15T12:54:58.338Z,11.50
2018-03-15T12:57:24.907Z,11.40
2018-03-15T12:59:51.357Z,11.70
2018-03-15T13:02:17.862Z,11.40
2018-03-15T13:04:44.358Z,11.10
2018-03-15T13:07:10.837Z,11.30
2018-03-15T13:09:37.393Z,11.10
2018-03-15T13:12:03.893Z,11.30
2018-03-15T13:14:30.375Z,11.40
2018-03-15T13:16:56.859Z,11.40
2018-03-15T13:19:23.345Z,11.60
2018-03-15T13:21:49.832Z,11.70
2018-03-15T13:24:16.302Z,11.80
2018-03-15T13:26:42.841Z,12.00
2018-03-15T13:29:09.372Z,12.00
2018-03-15T13:31:35.915Z,11.80
2018-03-15T13:34:02.416Z,12.00
2018-03-15T13:36:28.901Z,12.40
2018-03-15T13:38:55.415Z,13.00
2018-03-15T13:41:21.915Z,13.30
2018-03-15T13:43:48.437Z,13.70
2018-03-15T13:46:14.893Z,13.60
2018-03-15T13:48:41.432Z,13.80
2018-03-15T13:51:07.926Z,13.70
2018-03-15T13:53:34.434Z,13.70
2018-03-15T13:56:00.966Z,13.70
2018-03-15T13:58:27.447Z,13.60
2018-03-15T14:00:53.945Z,13.20
2018-03-15T14:03:20.456Z,13.20
2018-03-15T14:05:47.680Z,13.50
2018-03-15T14:08:14.165Z,13.50
2018-03-15T14:10:40.695Z,12.80
2018-03-15T14:13:07.195Z,13.00
2018-03-15T14:15:33.728Z,13.40
2018-03-15T14:18:00.221Z,13.10
2018-03-15T14:20:26.769Z,13.40
2018-03-15T14:22:53.279Z,13.10
2018-03-15T14:25:19.779Z,13.00
2018-03-15T14:27:46.361Z,12.80
2018-03-15T14:30:12.856Z,13.50
2018-03-15T14:32:40.106Z,13.40
2018-03-15T14:35:07.371Z,12.70
2018-03-15T14:37:34.609Z,13.00
2018-03-15T14:40:01.116Z,13.00
2018-03-15T14:42:27.754Z,12.80
2018-03-15T14:44:54.297Z,12.70
2018-03-15T14:47:20.930Z,12.50
2018-03-15T14:49:47.440Z,12.40
2018-03-15T14:52:13.941Z,12.20
2018-03-15T14:54:40.529Z,12.30
2018-03-15T14:57:07.150Z,12.30
2018-03-15T14:59:33.819Z,12.20
2018-03-15T15:02:00.324Z,12.00
2018-03-15T15:04:26.965Z,12.10
2018-03-15T15:06:53.683Z,12.10
2018-03-15T15:09:20.165Z,11.80
2018-03-15T15:11:46.699Z,11.60
2018-03-15T15:14:13.214Z,11.70
2018-03-15T15:16:39.696Z,11.80
2018-03-15T15:19:06.973Z,11.80
2018-03-15T15:21:33.583Z,11.80
2018-03-15T15:24:00.092Z,11.70
2018-03-15T15:26:26.583Z,11.60
2018-03-15T15:28:53.148Z,11.60
2018-03-15T15:31:19.619Z,11.50
2018-03-15T15:33:46.102Z,11.30
2018-03-15T15:36:12.607Z,11.40
2018-03-15T15:38:39.833Z,11.40
2018-03-15T15:41:07.062Z,11.40
2018-03-15T15:43:33.645Z,11.30
2018-03-15T15:46:00.990Z,11.30
2018-03-15T15:48:27.486Z,11.20
2018-03-15T15:50:53.984Z,11.10
2018-03-15T15:53:21.241Z,11.10
2018-03-15T15:55:47.756Z,11.10
2018-03-15T15:58:15.041Z,10.80
2018-03-15T16:00:41.559Z,10.70
2018-03-15T16:03:08.162Z,10.80
2018-03-15T16:05:34.716Z,10.80
2018-03-15T16:08:01.957Z,10.90
2018-03-15T16:10:28.482Z,10.90
2018-03-15T16:12:54.989Z,10.80
2018-03-15T16:15:21.518Z,10.80
2018-03-15T16:17:48.018Z,10.80
2018-03-15T16:20:15.265Z,10.80
2018-03-15T16:22:42.514Z,10.70
2018-03-15T16:25:09.061Z,10.70
2018-03-15T16:27:36.282Z,10.70
2018-03-15T16:30:02.851Z,10.70
2018-03-15T16:32:29.343Z,10.60
2018-03-15T16:34:56.594Z,10.60
2018-03-15T16:37:23.082Z,10.60
2018-03-15T16:39:49.577Z,10.60
2018-03-15T16:42:16.083Z,10.60
2018-03-15T16:44:42.650Z,10.60
2018-03-15T16:47:09.839Z,10.50
2018-03-15T16:49:36.331Z,10.50
2018-03-15T16:52:02.832Z,10.50
2018-03-15T16:54:29.295Z,10.50
2018-03-15T16:56:55.793Z,10.50
2018-03-15T16:59:22.284Z,10.40
2018-03-15T17:01:48.863Z,10.40
2018-03-15T17:04:15.382Z,10.30
2018-03-15T17:06:41.882Z,10.30
2018-03-15T17:09:09.174Z,10.30
2018-03-15T17:11:35.675Z,10.20
2018-03-15T17:14:02.162Z,10.30
2018-03-15T17:16:28.650Z,10.10
2018-03-15T17:18:55.146Z,10.10
2018-03-15T17:21:21.650Z,10.10
2018-03-15T17:23:48.134Z,10.10
2018-03-15T17:26:14.654Z,10.00
2018-03-15T17:28:41.160Z,10.00
2018-03-15T17:31:07.687Z,10.00
2018-03-15T17:33:34.918Z,10.00
2018-03-15T17:36:01.402Z,9.90
2018-03-15T17:38:27.892Z,9.90
2018-03-15T17:40:55.162Z,10.00
2018-03-15T17:43:22.414Z,9.80
2018-03-15T17:45:49.658Z,9.80
2018-03-15T17:48:16.934Z,9.80
2018-03-15T17:50:43.427Z,9.80
2018-03-15T17:53:09.889Z,9.70
2018-03-15T17:55:36.430Z,9.70
2018-03-15T17:58:03.079Z,9.70
2018-03-15T18:00:29.591Z,9.60
2018-03-15T18:02:56.110Z,9.60
2018-03-15T18:05:22.638Z,9.60
2018-03-15T18:07:49.168Z,9.50
2018-03-15T18:10:15.693Z,9.50
2018-03-15T18:12:42.238Z,9.50
2018-03-15T18:15:08.812Z,9.50
2018-03-15T18:17:35.339Z,9.50
2018-03-15T18:20:01.848Z,9.60
2018-03-15T18:22:28.410Z,9.60
2018-03-15T18:24:54.939Z,9.70
2018-03-15T18:27:22.199Z,9.80
2018-03-15T18:29:49.424Z,9.80
2018-03-15T18:32:15.933Z,9.80
2018-03-15T18:34:42.438Z,9.80
2018-03-15T18:37:08.960Z,9.80
2018-03-15T18:39:35.495Z,9.80
2018-03-15T18:42:02.749Z,9.80
2018-03-15T18:44:30.025Z,9.80
2018-03-15T18:46:56.533Z,9.80
2018-03-15T18:49:23.067Z,9.80
2018-03-15T18:51:49.558Z,9.80
2018-03-15T18:54:16.050Z,9.80
2018-03-15T18:56:42.617Z,9.80
2018-03-15T18:59:09.199Z,9.80
2018-03-15T19:01:35.729Z,9.80
2018-03-15T19:04:02.245Z,9.80
2018-03-15T19:06:29.479Z,9.80
2018-03-15T19:08:56.012Z,9.80
2018-03-15T19:11:22.724Z,9.80
2018-03-15T19:13:49.240Z,9.80
2018-03-15T19:16:16.477Z,9.70
2018-03-15T19:18:43.146Z,9.70
2018-03-15T19:21:10.412Z,9.70
2018-03-15T19:23:36.961Z,9.70
2018-03-15T19:26:03.477Z,9.70
2018-03-15T19:28:29.981Z,9.70
2018-03-15T19:30:56.669Z,9.70
2018-03-15T19:33:23.351Z,9.60
2018-03-15T19:35:49.999Z,9.60
2018-03-15T19:38:16.556Z,9.60
2018-03-15T19:40:43.798Z,9.60
2018-03-15T19:43:11.066Z,9.60
2018-03-15T19:45:38.292Z,9.60
2018-03-15T19:48:04.896Z,9.60
2018-03-15T19:50:31.425Z,9.60
2018-03-15T19:52:57.909Z,9.60
2018-03-15T19:55:24.622Z,9.60
2018-03-15T19:57:51.363Z,9.60
2018-03-15T20:00:17.860Z,9.50
2018-03-15T20:02:44.440Z,9.60
2018-03-15T20:05:10.937Z,9.60
2018-03-15T20:07:37.475Z,9.50
2018-03-15T20:10:03.985Z,9.50
2018-03-15T20:12:30.710Z,9.60
2018-03-15T20:14:58.079Z,9.60
2018-03-15T20:17:24.607Z,9.50
2018-03-15T20:19:51.851Z,9.60
2018-03-15T20:22:25.088Z,9.60
2018-03-15T20:24:51.655Z,9.50
2018-03-15T20:30:20.464Z,9.50
2018-03-15T20:32:53.058Z,9.50
2018-03-15T20:35:19.566Z,9.50
2018-03-15T20:37:46.068Z,9.40
2018-03-15T20:40:18.585Z,9.40
2018-03-15T20:42:45.077Z,9.40
2018-03-15T20:45:17.551Z,9.40
2018-03-15T20:47:50.110Z,9.40
2018-03-15T20:50:17.408Z,9.30
2018-03-15T20:52:43.932Z,9.30
2018-03-15T20:55:10.478Z,9.30
2018-03-15T20:57:36.955Z,9.20
2018-03-15T21:00:03.508Z,9.30
2018-03-15T21:02:30.023Z,9.30
2018-03-15T21:04:56.503Z,9.20
2018-03-15T21:07:23.052Z,9.20
2018-03-15T21:09:49.612Z,9.10
2018-03-15T21:12:16.213Z,9.10
2018-03-15T21:14:42.726Z,9.00
2018-03-15T21:17:09.274Z,8.90
2018-03-15T21:19:35.778Z,8.90
2018-03-15T21:22:02.290Z,9.00
2018-03-15T21:24:28.846Z,8.90
2018-03-15T21:26:55.333Z,8.80
2018-03-15T21:29:21.811Z,8.80
2018-03-15T21:31:48.338Z,8.70
2018-03-15T21:34:14.833Z,8.60
2018-03-15T21:36:41.306Z,8.80
2018-03-15T21:39:07.788Z,8.80
2018-03-15T21:41:34.255Z,8.80
2018-03-15T21:44:00.776Z,8.70
2018-03-15T21:46:27.349Z,8.70
2018-03-15T21:48:53.855Z,8.60
2018-03-15T21:51:20.420Z,8.60
2018-03-15T21:53:46.991Z,8.70
2018-03-15T21:56:13.489Z,8.70
2018-03-15T21:58:40.082Z,8.70
2018-03-15T22:01:06.605Z,8.60
2018-03-15T22:03:33.513Z,8.60
2018-03-15T22:06:00.001Z,8.70
2018-03-15T22:08:26.511Z,8.60
2018-03-15T22:10:52.991Z,8.60
2018-03-15T22:13:19.534Z,8.50
2018-03-15T22:15:46.010Z,8.40
2018-03-15T22:18:12.489Z,8.50
2018-03-15T22:20:39.038Z,8.60
2018-03-15T22:23:05.556Z,8.60
2018-03-15T22:25:32.055Z,8.80
2018-03-15T22:27:59.285Z,8.60
2018-03-15T22:30:25.827Z,8.60
2018-03-15T22:32:52.295Z,8.60
2018-03-15T22:35:18.852Z,8.50
2018-03-15T22:37:45.403Z,8.60
2018-03-15T22:40:11.875Z,8.60
2018-03-15T22:42:39.151Z,8.50
2018-03-15T22:45:05.620Z,8.50
2018-03-15T22:47:32.172Z,8.50
2018-03-15T22:49:59.382Z,8.40
2018-03-15T22:52:25.878Z,8.40
2018-03-15T22:54:52.386Z,8.30
2018-03-15T22:57:18.920Z,8.20
2018-03-15T22:59:45.429Z,8.20
2018-03-15T23:02:11.921Z,8.20
2018-03-15T23:04:38.407Z,8.20
2018-03-15T23:07:04.926Z,8.20
2018-03-15T23:09:31.416Z,8.10
2018-03-15T23:11:57.894Z,8.10
2018-03-15T23:14:24.464Z,8.10
2018-03-15T23:16:50.938Z,8.10
2018-03-15T23:19:18.213Z,8.00
2018-03-15T23:21:44.710Z,8.00
2018-03-15T23:24:11.248Z,8.00
2018-03-15T23:26:37.725Z,8.00
2018-03-15T23:29:04.217Z,7.90
2018-03-15T23:31:30.718Z,7.90
2018-03-15T23:33:57.190Z,7.90
2018-03-15T23:36:24.428Z,7.90
2018-03-15T23:38:50.913Z,7.90
2018-03-15T23:41:17.400Z,7.80
2018-03-15T23:43:43.876Z,7.80
2018-03-15T23:46:10.364Z,7.90
2018-03-15T23:48:37.626Z,7.80
2018-03-15T23:51:04.184Z,7.80
2018-03-15T23:53:30.698Z,7.90
2018-03-15T23:55:57.221Z,7.90
2018-03-15T23:58:23.730Z,7.90
